createdAt,value
2022-10-19T00:01:22.769Z,13.93
2022-10-19T00:03:55.303Z,15.17
2022-10-19T00:06:29.639Z,15.03
2022-10-19T00:09:04.822Z,14.43
2022-10-19T00:11:33.772Z,16.27
2022-10-19T00:14:01.770Z,14.83
2022-10-19T00:16:33.387Z,15.70
2022-10-19T00:19:04.606Z,14.77
2022-10-19T00:21:31.784Z,15.63
2022-10-19T00:23:58.854Z,16.00
2022-10-19T00:26:27.928Z,17.17
2022-10-19T00:28:56.555Z,16.40
2022-10-19T00:31:24.064Z,17.23
2022-10-19T00:33:51.894Z,17.80
2022-10-19T00:36:30.211Z,18.60
2022-10-19T00:38:58.565Z,18.77
2022-10-19T00:41:29.579Z,19.97
2022-10-19T00:44:15.939Z,19.80
2022-10-19T00:46:48.766Z,19.20
2022-10-19T00:49:24.051Z,20.00
2022-10-19T00:51:55.025Z,20.20
2022-10-19T00:54:22.551Z,19.63
2022-10-19T00:56:55.218Z,18.80
2022-10-19T00:59:25.182Z,19.60
2022-10-19T01:01:53.315Z,19.23
2022-10-19T01:04:22.059Z,19.57
2022-10-19T01:06:48.942Z,18.00
2022-10-19T01:09:15.824Z,18.83
2022-10-19T01:12:06.403Z,18.90
2022-10-19T01:15:10.547Z,20.17
2022-10-19T01:18:12.994Z,21.60
2022-10-19T01:21:03.898Z,21.47
2022-10-19T01:23:54.968Z,21.00
2022-10-19T01:26:52.766Z,18.73
2022-10-19T01:29:56.206Z,20.93
2022-10-19T01:32:31.629Z,20.83
2022-10-19T01:35:18.568Z,19.20
2022-10-19T01:38:28.015Z,19.97
2022-10-19T01:41:13.716Z,18.63
2022-10-19T01:44:05.693Z,20.00
2022-10-19T01:46:57.520Z,21.30
2022-10-19T01:49:49.871Z,19.87
2022-10-19T01:52:21.124Z,21.37
2022-10-19T01:54:52.862Z,20.53
2022-10-19T01:57:32.556Z,20.87
2022-10-19T02:00:07.189Z,20.80
2022-10-19T02:02:48.826Z,20.63
2022-10-19T02:05:19.248Z,20.80
2022-10-19T02:07:56.163Z,21.23
2022-10-19T02:10:24.007Z,21.17
2022-10-19T02:12:53.213Z,21.00
2022-10-19T02:15:24.055Z,22.53
2022-10-19T02:17:56.902Z,21.80
2022-10-19T02:20:24.802Z,22.80
2022-10-19T02:22:51.794Z,23.40
2022-10-19T02:25:19.246Z,24.17
2022-10-19T02:27:47.296Z,23.60
2022-10-19T02:30:18.926Z,24.30
2022-10-19T02:32:45.926Z,24.97
2022-10-19T02:35:14.702Z,24.53
2022-10-19T02:37:41.991Z,24.27
2022-10-19T02:40:09.893Z,27.00
2022-10-19T02:42:48.437Z,25.13
2022-10-19T02:45:29.367Z,23.63
2022-10-19T02:48:05.672Z,23.67
2022-10-19T02:50:32.774Z,23.33
2022-10-19T02:53:00.167Z,22.97
2022-10-19T02:55:28.638Z,24.07
2022-10-19T02:57:55.527Z,25.60
2022-10-19T03:00:22.377Z,25.13
2022-10-19T03:02:49.412Z,24.20
2022-10-19T03:05:16.334Z,24.57
2022-10-19T03:07:43.407Z,23.93
2022-10-19T03:10:10.363Z,25.60
2022-10-19T03:12:37.253Z,24.07
2022-10-19T03:15:05.120Z,26.80
2022-10-19T03:17:32.380Z,26.10
2022-10-19T03:19:59.521Z,26.50
2022-10-19T03:22:26.404Z,27.63
2022-10-19T03:24:53.303Z,26.00
2022-10-19T03:27:20.218Z,26.93
2022-10-19T03:29:47.178Z,25.50
2022-10-19T03:32:15.136Z,26.77
2022-10-19T03:34:42.058Z,25.23
2022-10-19T03:37:09.008Z,24.03
2022-10-19T03:39:36.963Z,22.37
2022-10-19T03:42:03.914Z,23.47
2022-10-19T03:44:30.912Z,23.00
2022-10-19T03:46:58.777Z,24.43
2022-10-19T03:49:25.771Z,23.20
2022-10-19T03:51:52.683Z,22.73
2022-10-19T03:54:22.527Z,24.00
2022-10-19T03:56:53.370Z,23.70
2022-10-19T03:59:20.354Z,22.80
2022-10-19T04:01:47.271Z,22.23
2022-10-19T04:04:18.231Z,22.30
2022-10-19T04:06:48.235Z,24.77
2022-10-19T04:09:19.313Z,24.63
2022-10-19T04:11:46.982Z,25.37
2022-10-19T04:14:26.659Z,24.73
2022-10-19T04:16:59.133Z,25.93
2022-10-19T04:19:26.065Z,28.17
2022-10-19T04:21:53.007Z,23.97
2022-10-19T04:24:20.007Z,28.07
2022-10-19T04:26:50.120Z,26.70
2022-10-19T04:29:19.194Z,27.40
2022-10-19T04:31:49.148Z,27.80
2022-10-19T04:34:16.915Z,29.30
2022-10-19T04:36:45.235Z,28.43
2022-10-19T04:39:12.883Z,25.60
2022-10-19T04:41:39.887Z,26.20
2022-10-19T04:44:07.395Z,26.33
2022-10-19T04:46:35.171Z,24.87
2022-10-19T04:49:04.202Z,23.73
2022-10-19T04:51:31.349Z,23.80
2022-10-19T04:53:59.932Z,23.07
2022-10-19T04:56:28.411Z,22.20
2022-10-19T04:59:00.412Z,22.77
2022-10-19T05:01:31.404Z,22.63
2022-10-19T05:04:02.451Z,22.63
2022-10-19T05:06:31.730Z,23.67
2022-10-19T05:08:59.798Z,23.67
2022-10-19T05:11:27.394Z,22.67
2022-10-19T05:13:54.386Z,21.77
2022-10-19T05:16:23.508Z,21.97
2022-10-19T05:18:56.179Z,23.07
2022-10-19T05:21:23.159Z,21.00
2022-10-19T05:23:54.827Z,22.70
2022-10-19T05:26:26.199Z,23.33
2022-10-19T05:28:57.576Z,21.20
2022-10-19T05:31:31.474Z,22.20
2022-10-19T05:33:58.940Z,23.10
2022-10-19T05:36:29.792Z,22.40
2022-10-19T05:38:58.277Z,22.40
2022-10-19T05:41:28.343Z,23.40
2022-10-19T05:43:59.505Z,22.73
2022-10-19T05:46:30.662Z,23.97
2022-10-19T05:48:58.893Z,24.63
2022-10-19T05:51:28.040Z,22.20
2022-10-19T05:53:57.341Z,22.03
2022-10-19T05:56:30.132Z,23.77
2022-10-19T05:58:59.751Z,22.70
2022-10-19T06:01:29.833Z,23.00
2022-10-19T06:03:59.034Z,23.30
2022-10-19T06:06:28.157Z,23.20
2022-10-19T06:08:56.873Z,24.77
2022-10-19T06:11:35.591Z,23.53
2022-10-19T06:14:11.154Z,22.67
2022-10-19T06:16:42.497Z,25.67
2022-10-19T06:19:09.479Z,24.80
2022-10-19T06:21:37.251Z,23.33
2022-10-19T06:24:06.495Z,24.93
2022-10-19T06:26:35.459Z,23.03
2022-10-19T06:29:04.662Z,19.63
2022-10-19T06:31:35.563Z,17.80
2022-10-19T06:34:02.910Z,18.90
2022-10-19T06:36:31.979Z,19.10
2022-10-19T06:39:01.558Z,18.33
2022-10-19T06:41:30.340Z,20.30
2022-10-19T06:43:57.770Z,20.30
2022-10-19T06:46:26.907Z,19.63
2022-10-19T06:48:59.422Z,20.83
2022-10-19T06:51:29.464Z,18.50
2022-10-19T06:53:57.501Z,17.40
2022-10-19T06:56:26.024Z,15.77
2022-10-19T06:58:53.931Z,16.50
2022-10-19T07:01:21.063Z,16.53
2022-10-19T07:03:48.039Z,16.70
2022-10-19T07:06:18.308Z,16.73
2022-10-19T07:08:45.246Z,17.30
2022-10-19T07:11:17.911Z,16.17
2022-10-19T07:13:44.829Z,18.17
2022-10-19T07:16:19.553Z,17.10
2022-10-19T07:18:51.225Z,16.90
2022-10-19T07:21:20.522Z,15.90
2022-10-19T07:23:48.284Z,15.93
2022-10-19T07:26:27.261Z,16.67
2022-10-19T07:28:57.067Z,16.80
2022-10-19T07:31:27.824Z,16.93
2022-10-19T07:34:01.228Z,16.80
2022-10-19T07:36:30.512Z,17.00
2022-10-19T07:38:57.745Z,16.00
2022-10-19T07:41:26.448Z,16.63
2022-10-19T07:43:54.389Z,17.77
2022-10-19T07:46:26.270Z,17.20
2022-10-19T07:48:53.811Z,17.80
2022-10-19T07:51:21.591Z,18.47
2022-10-19T07:53:48.861Z,17.30
2022-10-19T07:56:20.609Z,18.63
2022-10-19T07:58:49.656Z,17.53
2022-10-19T08:01:22.977Z,18.17
2022-10-19T08:06:40.446Z,16.87
2022-10-19T08:09:07.482Z,16.93
2022-10-19T08:11:36.123Z,18.70
2022-10-19T08:14:03.849Z,18.87
2022-10-19T08:16:32.897Z,17.40
2022-10-19T08:19:08.507Z,17.40
2022-10-19T08:21:37.570Z,15.80
2022-10-19T08:24:05.820Z,15.80
2022-10-19T08:26:36.531Z,16.80
2022-10-19T08:29:13.292Z,16.30
2022-10-19T08:31:41.683Z,16.57
2022-10-19T08:34:09.044Z,17.10
2022-10-19T08:36:39.439Z,14.70
2022-10-19T08:39:08.975Z,15.67
2022-10-19T08:41:38.144Z,14.73
2022-10-19T08:44:13.848Z,15.00
2022-10-19T08:47:02.658Z,16.00
2022-10-19T08:49:32.851Z,15.33
2022-10-19T08:52:24.590Z,14.40
2022-10-19T08:55:15.205Z,14.50
2022-10-19T08:58:16.558Z,14.70
2022-10-19T09:01:11.235Z,13.93
2022-10-19T09:03:54.843Z,13.40
2022-10-19T09:07:00.347Z,13.60
2022-10-19T09:09:31.021Z,14.17
2022-10-19T09:12:06.312Z,13.73
2022-10-19T09:14:49.099Z,12.80
2022-10-19T09:17:19.770Z,14.50
2022-10-19T09:19:47.843Z,12.63
2022-10-19T09:22:25.275Z,13.50
2022-10-19T09:25:01.797Z,15.10
2022-10-19T09:27:40.102Z,14.07
2022-10-19T09:30:20.779Z,12.83
2022-10-19T09:32:53.874Z,13.90
2022-10-19T09:35:36.334Z,13.17
2022-10-19T09:38:06.879Z,12.80
2022-10-19T09:40:34.956Z,11.87
2022-10-19T09:43:18.908Z,12.10
2022-10-19T09:46:19.668Z,11.70
2022-10-19T09:48:52.478Z,12.00
2022-10-19T09:51:21.290Z,11.93
2022-10-19T09:53:54.675Z,11.70
2022-10-19T09:56:25.840Z,12.00
2022-10-19T09:58:57.251Z,11.67
2022-10-19T10:01:43.138Z,11.50
2022-10-19T10:04:18.529Z,12.80
2022-10-19T10:06:48.500Z,11.60
2022-10-19T10:09:23.773Z,12.70
2022-10-19T10:14:36.006Z,12.97
2022-10-19T10:17:16.267Z,12.27
2022-10-19T10:19:52.455Z,13.03
2022-10-19T10:22:33.148Z,13.50
2022-10-19T10:25:01.023Z,13.77
2022-10-19T10:27:38.496Z,12.30
2022-10-19T10:30:16.483Z,12.50
2022-10-19T10:32:55.104Z,11.93
2022-10-19T10:35:35.201Z,12.30
2022-10-19T10:38:15.130Z,11.10
2022-10-19T10:40:52.795Z,11.70
2022-10-19T10:43:28.066Z,11.10
2022-10-19T10:46:02.104Z,10.17
2022-10-19T10:48:38.065Z,11.70
2022-10-19T10:51:23.562Z,10.33
2022-10-19T10:53:50.520Z,10.50
2022-10-19T10:56:29.115Z,10.20
2022-10-19T10:59:15.804Z,10.07
2022-10-19T11:01:58.585Z,9.70
2022-10-19T11:04:33.983Z,10.67
2022-10-19T11:07:16.886Z,10.87
2022-10-19T11:09:54.591Z,10.80
2022-10-19T11:12:40.105Z,8.70
2022-10-19T11:15:21.539Z,9.60
2022-10-19T11:18:22.818Z,9.80
2022-10-19T11:21:01.895Z,10.47
2022-10-19T11:23:59.656Z,9.67
2022-10-19T11:27:01.541Z,9.60
2022-10-19T11:30:10.908Z,9.80
2022-10-19T11:33:05.221Z,9.30
2022-10-19T11:35:46.059Z,8.50
2022-10-19T11:38:44.331Z,8.93
2022-10-19T11:41:35.990Z,8.90
2022-10-19T11:44:20.101Z,8.03
2022-10-19T11:47:01.974Z,8.30
2022-10-19T11:52:55.018Z,10.17
2022-10-19T11:55:46.285Z,9.53
2022-10-19T11:58:34.677Z,9.30
2022-10-19T12:01:44.809Z,9.60
2022-10-19T12:04:28.603Z,7.90
2022-10-19T12:07:18.977Z,8.03
2022-10-19T12:10:48.660Z,7.70
2022-10-19T12:13:23.512Z,7.17
2022-10-19T12:15:54.120Z,6.47
2022-10-19T12:18:32.116Z,6.17
2022-10-19T12:21:05.048Z,6.70
2022-10-19T12:23:39.649Z,5.83
2022-10-19T12:26:11.642Z,5.00
2022-10-19T12:28:43.365Z,4.57
2022-10-19T12:31:11.547Z,5.77
2022-10-19T12:33:49.328Z,5.70
2022-10-19T12:36:42.665Z,4.87
2022-10-19T12:39:30.865Z,5.13
2022-10-19T12:42:16.029Z,4.30
2022-10-19T12:45:27.222Z,3.90
2022-10-19T12:48:11.096Z,3.60
2022-10-19T12:50:50.250Z,4.00
2022-10-19T12:53:39.209Z,4.30
2022-10-19T12:56:23.197Z,4.43
2022-10-19T12:59:02.266Z,5.30
2022-10-19T13:01:44.311Z,5.10
2022-10-19T13:04:25.070Z,4.80
2022-10-19T13:07:09.151Z,4.40
2022-10-19T13:09:46.044Z,5.30
2022-10-19T13:12:19.607Z,4.47
2022-10-19T13:14:51.451Z,4.50
2022-10-19T13:17:37.134Z,4.27
2022-10-19T13:20:36.386Z,4.50
2022-10-19T13:23:06.035Z,4.23
2022-10-19T13:25:37.161Z,4.37
2022-10-19T13:28:07.272Z,4.17
2022-10-19T13:30:38.157Z,3.97
2022-10-19T13:33:29.582Z,4.03
2022-10-19T13:35:59.602Z,4.00
2022-10-19T13:38:28.836Z,4.77
2022-10-19T13:41:01.859Z,3.57
2022-10-19T13:43:43.983Z,3.60
2022-10-19T13:46:30.154Z,3.50
2022-10-19T13:49:27.780Z,3.70
2022-10-19T13:52:09.323Z,3.80
2022-10-19T13:54:54.806Z,3.17
2022-10-19T13:58:14.039Z,3.63
2022-10-19T14:01:34.284Z,3.67
2022-10-19T14:04:18.352Z,3.53
2022-10-19T14:06:59.456Z,3.50
2022-10-19T14:09:44.500Z,3.17
2022-10-19T14:12:31.242Z,3.30
2022-10-19T14:14:58.547Z,4.23
2022-10-19T14:17:33.752Z,3.50
2022-10-19T14:20:01.322Z,3.00
2022-10-19T14:22:34.094Z,3.47
2022-10-19T14:25:28.579Z,3.23
2022-10-19T14:28:06.784Z,3.50
2022-10-19T14:30:36.640Z,3.13
2022-10-19T14:33:11.123Z,3.60
2022-10-19T14:35:41.750Z,3.40
2022-10-19T14:38:17.610Z,3.77
2022-10-19T14:40:44.693Z,3.63
2022-10-19T14:43:28.034Z,3.77
2022-10-19T14:46:11.959Z,3.47
2022-10-19T14:48:45.603Z,3.43
2022-10-19T14:51:48.077Z,3.37
2022-10-19T14:54:28.919Z,3.10
2022-10-19T14:57:09.102Z,3.27
2022-10-19T14:59:48.728Z,3.80
2022-10-19T15:02:33.661Z,4.00
2022-10-19T15:05:03.821Z,4.50
2022-10-19T15:07:40.671Z,3.77
2022-10-19T15:10:20.614Z,3.17
2022-10-19T15:12:50.361Z,3.90
2022-10-19T15:15:27.243Z,3.20
2022-10-19T15:18:03.168Z,3.10
2022-10-19T15:20:54.900Z,3.70
2022-10-19T15:23:46.214Z,3.27
2022-10-19T15:26:29.280Z,3.30
2022-10-19T15:29:20.574Z,3.40
2022-10-19T15:31:47.546Z,3.60
2022-10-19T15:34:28.824Z,3.80
2022-10-19T15:37:01.500Z,3.53
2022-10-19T15:39:38.915Z,3.90
2022-10-19T15:42:41.134Z,3.73
2022-10-19T15:45:28.007Z,3.17
2022-10-19T15:48:10.105Z,4.13
2022-10-19T15:50:50.181Z,3.70
2022-10-19T15:53:17.193Z,4.10
2022-10-19T15:55:44.490Z,4.33
2022-10-19T15:58:13.242Z,4.30
2022-10-19T16:00:41.744Z,3.90
2022-10-19T16:03:09.152Z,3.80
2022-10-19T16:05:36.828Z,4.40
2022-10-19T16:08:08.854Z,4.60
2022-10-19T16:10:38.663Z,3.90
2022-10-19T16:13:05.574Z,4.20
2022-10-19T16:15:33.425Z,4.27
2022-10-19T16:18:00.804Z,4.00
2022-10-19T16:20:29.967Z,4.47
2022-10-19T16:22:57.917Z,4.13
2022-10-19T16:25:25.074Z,4.20
2022-10-19T16:27:51.967Z,4.50
2022-10-19T16:30:19.090Z,4.10
2022-10-19T16:32:48.712Z,4.40
2022-10-19T16:35:15.841Z,3.93
2022-10-19T16:37:42.983Z,4.30
2022-10-19T16:40:10.485Z,4.30
2022-10-19T16:42:37.876Z,4.43
2022-10-19T16:45:05.476Z,5.37
2022-10-19T16:47:32.520Z,3.90
2022-10-19T16:50:01.961Z,4.03
2022-10-19T16:52:31.690Z,4.33
2022-10-19T16:54:59.973Z,4.10
2022-10-19T16:57:27.160Z,4.20
2022-10-19T16:59:54.522Z,4.30
2022-10-19T17:02:22.990Z,4.43
2022-10-19T17:04:50.083Z,4.70
2022-10-19T17:07:17.785Z,4.30
2022-10-19T17:09:44.875Z,4.37
2022-10-19T17:12:12.414Z,4.90
2022-10-19T17:14:42.104Z,4.50
2022-10-19T17:17:11.045Z,4.70
2022-10-19T17:19:38.549Z,4.90
2022-10-19T17:22:05.691Z,4.50
2022-10-19T17:24:32.786Z,4.60
2022-10-19T17:27:03.186Z,4.80
2022-10-19T17:29:30.418Z,4.33
2022-10-19T17:31:57.955Z,4.90
2022-10-19T17:34:24.891Z,4.87
2022-10-19T17:36:51.787Z,4.77
2022-10-19T17:39:25.742Z,5.03
2022-10-19T17:42:01.595Z,4.70
2022-10-19T17:44:30.604Z,4.73
2022-10-19T17:46:57.827Z,5.93
2022-10-19T17:49:24.892Z,5.00
2022-10-19T17:51:53.643Z,5.33
2022-10-19T17:54:20.665Z,5.60
2022-10-19T17:56:47.787Z,5.63
2022-10-19T17:59:14.850Z,4.67
2022-10-19T18:01:42.237Z,5.60
2022-10-19T18:04:09.204Z,6.10
2022-10-19T18:06:37.911Z,5.80
2022-10-19T18:09:08.663Z,5.73
2022-10-19T18:11:40.386Z,5.57
2022-10-19T18:14:09.636Z,5.60
2022-10-19T18:16:42.193Z,5.87
2022-10-19T18:19:09.437Z,6.33
2022-10-19T18:21:40.265Z,6.80
2022-10-19T18:24:14.303Z,6.50
2022-10-19T18:26:42.687Z,6.50
2022-10-19T18:29:15.773Z,7.30
2022-10-19T18:31:43.081Z,7.50
2022-10-19T18:34:15.219Z,8.10
2022-10-19T18:36:42.608Z,7.33
2022-10-19T18:39:12.503Z,8.17
2022-10-19T18:41:40.638Z,7.10
2022-10-19T18:44:11.096Z,7.10
2022-10-19T18:46:38.548Z,7.33
2022-10-19T18:49:08.331Z,8.33
2022-10-19T18:51:36.212Z,7.70
2022-10-19T18:54:03.667Z,8.30
2022-10-19T18:56:30.732Z,8.73
2022-10-19T18:58:57.652Z,8.93
2022-10-19T19:01:28.237Z,8.90
2022-10-19T19:04:00.313Z,9.57
2022-10-19T19:06:30.115Z,9.33
2022-10-19T19:08:59.438Z,9.67
2022-10-19T19:11:31.827Z,9.60
2022-10-19T19:14:14.914Z,10.77
2022-10-19T19:16:43.474Z,10.83
2022-10-19T19:19:12.973Z,11.00
2022-10-19T19:21:43.849Z,11.03
2022-10-19T19:24:15.414Z,10.83
2022-10-19T19:26:50.341Z,12.37
2022-10-19T19:29:20.184Z,11.43
2022-10-19T19:31:48.117Z,12.70
2022-10-19T19:34:15.235Z,11.60
2022-10-19T19:36:47.213Z,12.23
2022-10-19T19:39:18.722Z,14.17
2022-10-19T19:41:46.240Z,12.80
2022-10-19T19:44:13.247Z,12.20
2022-10-19T19:46:40.198Z,13.93
2022-10-19T19:49:07.291Z,13.53
2022-10-19T19:51:35.171Z,12.73
2022-10-19T19:54:02.446Z,13.77
2022-10-19T19:56:29.626Z,14.93
2022-10-19T19:58:59.394Z,13.80
2022-10-19T20:01:27.304Z,14.67
2022-10-19T20:03:54.466Z,14.50
2022-10-19T20:06:25.073Z,14.67
2022-10-19T20:08:54.495Z,16.23
2022-10-19T20:11:22.631Z,14.60
2022-10-19T20:13:50.310Z,15.60
2022-10-19T20:16:25.142Z,15.10
2022-10-19T20:19:12.648Z,16.07
2022-10-19T20:21:40.405Z,15.00
2022-10-19T20:24:08.750Z,14.70
2022-10-19T20:26:36.305Z,15.67
2022-10-19T20:29:04.810Z,16.70
2022-10-19T20:31:33.493Z,15.63
2022-10-19T20:34:00.635Z,14.23
2022-10-19T20:36:27.492Z,15.80
2022-10-19T20:38:57.556Z,15.40
2022-10-19T20:41:28.568Z,14.07
2022-10-19T20:43:56.730Z,16.17
2022-10-19T20:46:28.033Z,15.50
2022-10-19T20:48:58.020Z,16.53
2022-10-19T20:51:36.478Z,14.63
2022-10-19T20:54:07.002Z,15.63
2022-10-19T20:56:37.091Z,17.37
2022-10-19T20:59:11.614Z,16.37
2022-10-19T21:01:40.653Z,16.03
2022-10-19T21:04:11.178Z,16.20
2022-10-19T21:06:44.106Z,15.73
2022-10-19T21:09:13.509Z,15.87
2022-10-19T21:11:42.825Z,16.23
2022-10-19T21:14:14.826Z,16.33
2022-10-19T21:16:42.955Z,16.30
2022-10-19T21:19:21.756Z,16.50
2022-10-19T21:21:52.739Z,16.80
2022-10-19T21:24:27.316Z,16.20
2022-10-19T21:26:54.532Z,15.63
2022-10-19T21:29:21.673Z,15.83
2022-10-19T21:31:52.193Z,18.17
2022-10-19T21:34:23.553Z,17.10
2022-10-19T21:36:50.538Z,16.17
2022-10-19T21:39:18.579Z,16.87
2022-10-19T21:41:46.354Z,16.37
2022-10-19T21:44:14.979Z,16.30
2022-10-19T21:46:45.062Z,16.67
2022-10-19T21:49:12.549Z,16.50
2022-10-19T21:51:53.539Z,18.00
2022-10-19T21:54:29.152Z,15.83
2022-10-19T21:56:57.645Z,16.90
2022-10-19T21:59:25.999Z,15.70
2022-10-19T22:01:55.103Z,16.20
2022-10-19T22:04:23.627Z,15.90
2022-10-19T22:06:50.826Z,16.07
2022-10-19T22:09:22.226Z,16.50
2022-10-19T22:11:49.434Z,16.03
2022-10-19T22:14:16.894Z,15.80
2022-10-19T22:16:43.985Z,16.70
2022-10-19T22:19:11.405Z,15.20
2022-10-19T22:24:15.551Z,15.63
2022-10-19T22:26:50.609Z,16.10
2022-10-19T22:29:17.876Z,14.90
2022-10-19T22:31:44.982Z,15.10
2022-10-19T22:34:16.348Z,15.50
2022-10-19T22:36:44.686Z,15.37
2022-10-19T22:39:12.829Z,14.43
2022-10-19T22:41:39.776Z,13.90
2022-10-19T22:44:06.757Z,15.90
2022-10-19T22:46:34.007Z,15.50
2022-10-19T22:49:01.005Z,14.80
2022-10-19T22:51:28.020Z,14.97
2022-10-19T22:53:54.912Z,14.27
2022-10-19T22:56:21.822Z,15.63
2022-10-19T22:58:48.819Z,14.73
2022-10-19T23:01:16.799Z,13.93
2022-10-19T23:03:44.181Z,15.37
2022-10-19T23:06:14.096Z,16.10
2022-10-19T23:08:42.815Z,14.37
2022-10-19T23:11:10.070Z,14.63
2022-10-19T23:13:37.259Z,15.47
2022-10-19T23:16:04.565Z,16.33
2022-10-19T23:18:33.427Z,15.57
2022-10-19T23:21:11.191Z,16.30
2022-10-19T23:23:39.366Z,16.37
2022-10-19T23:26:20.780Z,15.97
2022-10-19T23:28:49.638Z,15.57
2022-10-19T23:31:26.402Z,13.67
2022-10-19T23:33:54.115Z,14.37
2022-10-19T23:36:27.981Z,14.10
2022-10-19T23:38:56.587Z,14.47
2022-10-19T23:41:23.980Z,14.77
2022-10-19T23:43:50.902Z,15.50
2022-10-19T23:46:17.879Z,14.57
2022-10-19T23:48:44.872Z,15.70
2022-10-19T23:51:15.736Z,14.87
2022-10-19T23:53:46.751Z,14.53
2022-10-19T23:56:20.251Z,13.90
2022-10-19T23:58:47.825Z,15.10
